NCAR-RAP Real-Time Weather Data

Output produced by METARs form (14 October 2019  23:02 UTC)
found at http://weather.rap.ucar.edu/surface/
 
KPVD 142251Z 21008KT 10SM CLR 15/13 A2993 RMK AO2 SLP135 T01500128
KPVD 142151Z 17004KT 10SM FEW025 16/14 A2992 RMK AO2 SLP131 T01610144
KPVD 142051Z 17008KT 10SM FEW025 18/14 A2990 RMK AO2 SLP126 T01830144 55012
KPVD 142027Z 17008KT 10SM SCT025 19/14 A2989 RMK AO2 T01940144